Time;durP1;ratioP1;P1;durP2;ratioP2;P2;SDS_P1;SDS_P2;PMS_P1;PMS_P2;Temp;Humidity;BMP_temperature;BMP_pressure;BME280_temperature;BME280_humidity;BME280_pressure;Samples;Min_cycle;Max_cycle;Signal;HPM_P1;HPM_P2
2023/07/18 00:00:43;;;;;;;2.65;2.22;;;;;;;;;;5138514;27;20054;-86
2023/07/18 00:03:15;;;;;;;2.75;1.90;;;;;;;;;;5118533;27;20027;-88
2023/07/18 00:05:42;;;;;;;4.35;2.65;;;;;;;;;;5135583;27;20035;-87
2023/07/18 00:08:07;;;;;;;2.30;1.88;;;;;;;;;;5138494;27;20023;-87
2023/07/18 00:10:33;;;;;;;3.75;2.58;;;;;;;;;;5117344;27;20034;-88
2023/07/18 00:12:59;;;;;;;2.85;2.30;;;;;;;;;;5133053;27;20030;-87
2023/07/18 00:15:28;;;;;;;2.35;2.00;;;;;;;;;;5136613;27;20031;-88
2023/07/18 00:17:54;;;;;;;4.38;2.58;;;;;;;;;;5119226;27;20030;-89
2023/07/18 00:20:22;;;;;;;3.38;2.22;;;;;;;;;;5133123;27;20035;-86
2023/07/18 00:22:49;;;;;;;2.63;2.15;;;;;;;;;;5136094;27;20023;-86
2023/07/18 00:25:20;;;;;;;2.55;1.90;;;;;;;;;;5136838;27;20039;-87
2023/07/18 00:27:53;;;;;;;3.35;1.95;;;;;;;;;;5116010;27;20088;-85
2023/07/18 00:30:21;;;;;;;3.63;2.83;;;;;;;;;;5115473;27;20095;-88
2023/07/18 00:32:47;;;;;;;3.63;2.30;;;;;;;;;;5116526;27;20033;-88
2023/07/18 00:35:13;;;;;;;2.88;1.90;;;;;;;;;;5134427;27;20032;-86
2023/07/18 00:37:39;;;;;;;4.25;2.60;;;;;;;;;;5116465;27;20106;-86
2023/07/18 00:40:12;;;;;;;4.32;3.10;;;;;;;;;;5134114;27;20069;-89
2023/07/18 00:42:45;;;;;;;4.38;2.95;;;;;;;;;;5137797;27;20047;-87
2023/07/18 00:45:11;;;;;;;3.17;2.70;;;;;;;;;;5134543;27;20027;-88
2023/07/18 00:47:40;;;;;;;3.80;3.08;;;;;;;;;;5133978;27;20062;-88
2023/07/18 00:50:09;;;;;;;3.28;2.30;;;;;;;;;;5135749;27;20053;-88
2023/07/18 00:52:43;;;;;;;3.40;2.40;;;;;;;;;;5134858;27;20027;-90
2023/07/18 00:55:10;;;;;;;4.75;3.05;;;;;;;;;;5136242;27;20066;-87
2023/07/18 00:57:38;;;;;;;2.75;2.20;;;;;;;;;;5117232;27;20027;-89
2023/07/18 01:00:11;;;;;;;4.05;3.13;;;;;;;;;;5118085;27;20031;-89
2023/07/18 01:02:38;;;;;;;2.28;1.77;;;;;;;;;;5121388;27;20038;-90
2023/07/18 01:05:08;;;;;;;4.07;2.50;;;;;;;;;;5136978;27;20519;-89
2023/07/18 01:07:34;;;;;;;4.00;2.45;;;;;;;;;;5117513;27;20548;-88
2023/07/18 01:10:23;;;;;;;3.15;2.42;;;;;;;;;;5136103;27;20022;-88
2023/07/18 01:12:52;;;;;;;2.63;2.20;;;;;;;;;;5118444;27;20420;-93
2023/07/18 01:15:20;;;;;;;3.10;2.65;;;;;;;;;;5137434;27;20049;-89
2023/07/18 01:17:46;;;;;;;3.10;2.30;;;;;;;;;;5117909;27;20035;-86
2023/07/18 01:20:26;;;;;;;4.68;2.92;;;;;;;;;;5115634;27;20511;-89
2023/07/18 01:22:54;;;;;;;3.10;2.42;;;;;;;;;;5133757;27;20038;-89
2023/07/18 01:25:21;;;;;;;3.88;2.90;;;;;;;;;;5132618;27;20106;-88
2023/07/18 01:27:48;;;;;;;5.00;3.35;;;;;;;;;;5137680;27;20023;-86
2023/07/18 01:30:15;;;;;;;2.58;2.30;;;;;;;;;;5136513;28;20038;-90
2023/07/18 01:32:44;;;;;;;2.67;2.22;;;;;;;;;;5135058;28;20035;-87
2023/07/18 01:35:10;;;;;;;3.58;2.65;;;;;;;;;;5113622;28;20064;-86
2023/07/18 01:37:37;;;;;;;4.15;2.97;;;;;;;;;;5115970;28;20031;-90
2023/07/18 01:40:08;;;;;;;4.20;3.40;;;;;;;;;;5118048;28;20034;-90
2023/07/18 01:42:34;;;;;;;3.42;2.50;;;;;;;;;;5113567;28;20847;-86
2023/07/18 01:45:00;;;;;;;4.03;3.05;;;;;;;;;;5120322;28;20027;-87
2023/07/18 01:47:25;;;;;;;4.43;2.85;;;;;;;;;;5133294;28;20025;-85
2023/07/18 01:49:51;;;;;;;2.65;2.00;;;;;;;;;;5133383;28;20019;-87
2023/07/18 01:52:16;;;;;;;3.97;2.85;;;;;;;;;;5115634;28;20027;-87
2023/07/18 01:54:41;;;;;;;4.15;2.83;;;;;;;;;;5135742;27;20093;-87
2023/07/18 01:57:08;;;;;;;3.83;2.63;;;;;;;;;;5133208;28;20076;-86
2023/07/18 01:59:33;;;;;;;3.35;2.70;;;;;;;;;;5116251;28;20019;-88
2023/07/18 02:01:59;;;;;;;2.47;2.10;;;;;;;;;;5135940;28;20034;-87
2023/07/18 02:04:25;;;;;;;3.13;2.45;;;;;;;;;;5116583;28;20019;-88
2023/07/18 02:06:52;;;;;;;3.83;2.28;;;;;;;;;;5134494;28;20027;-88
2023/07/18 02:09:17;;;;;;;4.65;2.70;;;;;;;;;;5133364;28;20031;-90
2023/07/18 02:11:43;;;;;;;2.67;2.05;;;;;;;;;;5113113;28;20045;-88
2023/07/18 02:14:08;;;;;;;3.95;2.58;;;;;;;;;;5130230;28;20015;-86
2023/07/18 02:16:34;;;;;;;3.25;2.38;;;;;;;;;;5113062;28;20225;-89
2023/07/18 02:19:00;;;;;;;4.70;2.83;;;;;;;;;;5116060;28;20019;-88
2023/07/18 02:21:26;;;;;;;3.08;2.47;;;;;;;;;;5118991;28;20038;-89
2023/07/18 02:23:55;;;;;;;3.22;2.65;;;;;;;;;;5117338;28;20019;-89
2023/07/18 02:26:20;;;;;;;3.88;2.92;;;;;;;;;;5113492;28;20030;-87
2023/07/18 02:28:45;;;;;;;3.63;2.72;;;;;;;;;;5131772;27;20039;-90
2023/07/18 02:31:11;;;;;;;3.45;2.65;;;;;;;;;;5136424;28;20027;-88
2023/07/18 02:33:38;;;;;;;3.10;2.15;;;;;;;;;;5114689;28;20019;-90
2023/07/18 02:36:06;;;;;;;2.85;2.35;;;;;;;;;;5115537;27;20029;-86
2023/07/18 02:38:31;;;;;;;3.60;2.72;;;;;;;;;;5136788;27;20051;-90
2023/07/18 02:40:57;;;;;;;2.95;2.47;;;;;;;;;;5118372;27;20043;-87
2023/07/18 02:43:22;;;;;;;3.30;2.58;;;;;;;;;;5135879;27;20039;-88
2023/07/18 02:45:48;;;;;;;4.43;3.63;;;;;;;;;;5137936;27;20031;-88
2023/07/18 02:48:13;;;;;;;12.40;2.30;;;;;;;;;;5138101;27;20026;-89
2023/07/18 02:50:42;;;;;;;3.15;2.47;;;;;;;;;;5138443;27;20027;-90
2023/07/18 02:53:08;;;;;;;4.72;3.25;;;;;;;;;;5120896;27;20038;-89
2023/07/18 02:55:33;;;;;;;2.88;2.28;;;;;;;;;;5138576;27;20023;-90
2023/07/18 02:57:59;;;;;;;4.30;3.00;;;;;;;;;;5116439;27;20050;-89
2023/07/18 03:00:28;;;;;;;4.88;2.75;;;;;;;;;;5137253;27;20098;-89
2023/07/18 03:02:54;;;;;;;3.65;2.70;;;;;;;;;;5118351;27;20038;-88
2023/07/18 03:05:21;;;;;;;5.80;3.13;;;;;;;;;;5137171;27;20467;-90
2023/07/18 03:07:47;;;;;;;3.25;2.70;;;;;;;;;;5120912;27;20023;-87
2023/07/18 03:10:13;;;;;;;11.32;4.13;;;;;;;;;;5138082;27;20033;-89
2023/07/18 03:12:40;;;;;;;3.85;2.75;;;;;;;;;;5137388;27;20023;-89
2023/07/18 03:15:09;;;;;;;6.03;3.13;;;;;;;;;;5140021;27;20041;-91
2023/07/18 03:17:35;;;;;;;3.60;2.70;;;;;;;;;;5118811;27;20455;-87
2023/07/18 03:20:08;;;;;;;3.35;2.42;;;;;;;;;;5113861;28;20276;-88
2023/07/18 03:22:34;;;;;;;4.18;2.92;;;;;;;;;;5137564;27;20042;-88
2023/07/18 03:25:07;;;;;;;4.55;3.08;;;;;;;;;;5122360;27;20035;-87
2023/07/18 03:27:33;;;;;;;3.67;2.60;;;;;;;;;;5138997;27;20023;-89
2023/07/18 03:29:58;;;;;;;4.40;3.38;;;;;;;;;;5138440;27;20122;-85
2023/07/18 03:32:25;;;;;;;3.70;2.80;;;;;;;;;;5138728;27;20114;-87
2023/07/18 03:34:51;;;;;;;3.55;2.40;;;;;;;;;;5137056;27;20066;-87
2023/07/18 03:37:16;;;;;;;4.38;3.20;;;;;;;;;;5137939;27;20035;-89
2023/07/18 03:39:42;;;;;;;2.97;2.40;;;;;;;;;;5119103;27;20113;-89
2023/07/18 03:42:07;;;;;;;3.30;2.70;;;;;;;;;;5122648;27;20516;-89
2023/07/18 03:44:33;;;;;;;2.28;1.90;;;;;;;;;;5120866;27;20094;-90
2023/07/18 03:46:59;;;;;;;4.35;3.53;;;;;;;;;;5121552;27;20371;-91
2023/07/18 03:49:24;;;;;;;3.20;2.78;;;;;;;;;;5118848;27;20464;-88
2023/07/18 03:51:50;;;;;;;3.83;3.00;;;;;;;;;;5135313;27;20057;-87
2023/07/18 03:54:15;;;;;;;5.53;3.33;;;;;;;;;;5132831;27;20074;-88
2023/07/18 03:56:41;;;;;;;2.25;1.83;;;;;;;;;;5118807;27;20030;-88
2023/07/18 03:59:07;;;;;;;4.00;2.75;;;;;;;;;;5136267;27;20037;-88
2023/07/18 04:01:32;;;;;;;4.38;3.10;;;;;;;;;;5117054;27;20023;-89
2023/07/18 04:03:58;;;;;;;3.47;2.60;;;;;;;;;;5118990;27;20447;-88
2023/07/18 04:06:23;;;;;;;4.72;3.67;;;;;;;;;;5118419;27;20037;-89
2023/07/18 04:08:54;;;;;;;3.92;3.10;;;;;;;;;;5118061;27;20095;-88
2023/07/18 04:11:20;;;;;;;3.85;2.78;;;;;;;;;;5120688;27;20055;-89
2023/07/18 04:13:45;;;;;;;2.78;2.10;;;;;;;;;;5118764;27;20517;-88
2023/07/18 04:16:12;;;;;;;4.45;2.72;;;;;;;;;;5119090;27;20039;-89
2023/07/18 04:18:37;;;;;;;4.38;2.65;;;;;;;;;;5117308;27;20023;-88
2023/07/18 04:21:03;;;;;;;4.93;3.08;;;;;;;;;;5118045;27;20056;-88
2023/07/18 04:23:29;;;;;;;4.03;3.03;;;;;;;;;;5116367;27;20051;-90
2023/07/18 04:25:57;;;;;;;4.00;3.15;;;;;;;;;;5119676;27;20030;-87
2023/07/18 04:28:23;;;;;;;3.40;2.70;;;;;;;;;;5135470;27;20023;-87
2023/07/18 04:30:49;;;;;;;5.15;3.20;;;;;;;;;;5131747;27;20027;-87
2023/07/18 04:33:15;;;;;;;3.30;3.00;;;;;;;;;;5133572;27;20023;-88
2023/07/18 04:35:41;;;;;;;3.67;2.83;;;;;;;;;;5115360;27;20118;-85
2023/07/18 04:38:09;;;;;;;4.15;3.42;;;;;;;;;;5112891;27;20103;-86
2023/07/18 04:40:59;;;;;;;;;;;;;;;;;;;;;
2023/07/18 04:43:25;;;;;;;3.65;2.53;;;;;;;;;;5125755;27;20485;-83
2023/07/18 04:45:50;;;;;;;4.72;3.25;;;;;;;;;;5134006;27;20091;-85
2023/07/18 04:48:18;;;;;;;4.57;3.20;;;;;;;;;;5122812;27;20095;-85
2023/07/18 04:50:59;;;;;;;3.80;2.67;;;;;;;;;;5115234;27;20079;-83
2023/07/18 04:53:30;;;;;;;4.28;3.30;;;;;;;;;;5133551;27;20023;-86
2023/07/18 04:55:56;;;;;;;3.30;2.65;;;;;;;;;;5132047;27;20038;-84
2023/07/18 04:58:33;;;;;;;5.00;3.20;;;;;;;;;;5112543;27;20035;-87
2023/07/18 05:00:59;;;;;;;4.28;3.00;;;;;;;;;;5117059;27;20034;-86
2023/07/18 05:03:26;;;;;;;4.53;3.60;;;;;;;;;;5117898;27;20031;-86
2023/07/18 05:05:53;;;;;;;5.30;3.10;;;;;;;;;;5130900;27;20030;-87
2023/07/18 05:08:18;;;;;;;2.78;2.47;;;;;;;;;;5134208;27;20031;-86
2023/07/18 05:10:44;;;;;;;2.80;2.40;;;;;;;;;;5133144;27;20030;-85
2023/07/18 05:13:10;;;;;;;3.53;3.10;;;;;;;;;;5111972;27;20023;-85
2023/07/18 05:15:36;;;;;;;3.15;2.42;;;;;;;;;;5132703;27;20033;-85
2023/07/18 05:18:02;;;;;;;3.90;2.60;;;;;;;;;;5115608;27;20478;-84
2023/07/18 05:20:27;;;;;;;4.45;3.35;;;;;;;;;;5124178;27;20379;-84
2023/07/18 05:22:53;;;;;;;3.90;3.50;;;;;;;;;;5112353;27;20031;-85
2023/07/18 05:25:18;;;;;;;3.70;2.72;;;;;;;;;;5131099;27;20054;-84
2023/07/18 05:27:44;;;;;;;3.50;2.90;;;;;;;;;;5131603;27;20047;-84
2023/07/18 05:30:18;;;;;;;7.20;3.55;;;;;;;;;;5128057;27;20085;-83
2023/07/18 05:32:44;;;;;;;2.60;2.13;;;;;;;;;;5129207;28;20019;-84
2023/07/18 05:35:11;;;;;;;3.38;2.78;;;;;;;;;;5128843;28;20051;-84
2023/07/18 05:37:37;;;;;;;4.50;3.55;;;;;;;;;;5131720;28;20106;-89
2023/07/18 05:40:03;;;;;;;11.68;3.08;;;;;;;;;;5104443;28;20549;-84
2023/07/18 05:42:29;;;;;;;5.03;3.97;;;;;;;;;;5111037;28;20087;-86
2023/07/18 05:44:55;;;;;;;4.28;3.42;;;;;;;;;;5110825;28;20037;-87
2023/07/18 05:47:20;;;;;;;4.65;3.13;;;;;;;;;;5132580;28;20023;-87
2023/07/18 05:49:45;;;;;;;4.00;3.30;;;;;;;;;;5111058;28;20027;-87
2023/07/18 05:52:11;;;;;;;5.38;3.83;;;;;;;;;;5106107;28;20472;-87
2023/07/18 05:54:36;;;;;;;4.75;3.53;;;;;;;;;;5114834;28;20035;-86
2023/07/18 05:57:02;;;;;;;4.78;3.17;;;;;;;;;;5114496;28;20024;-89
2023/07/18 05:59:27;;;;;;;4.10;3.28;;;;;;;;;;5125088;28;20023;-88
2023/07/18 06:01:53;;;;;;;3.10;2.58;;;;;;;;;;5128533;28;20023;-87
2023/07/18 06:04:21;;;;;;;4.88;3.65;;;;;;;;;;5132303;28;20027;-86
2023/07/18 06:06:46;;;;;;;4.30;2.97;;;;;;;;;;5129124;27;20437;-85
2023/07/18 06:09:12;;;;;;;5.97;3.67;;;;;;;;;;5130699;28;20161;-88
2023/07/18 06:11:38;;;;;;;4.43;3.53;;;;;;;;;;5132647;27;20048;-85
2023/07/18 06:14:05;;;;;;;4.22;3.03;;;;;;;;;;5136387;27;20118;-84
2023/07/18 06:16:31;;;;;;;5.25;2.92;;;;;;;;;;5115357;27;20035;-87
2023/07/18 06:18:56;;;;;;;3.63;2.90;;;;;;;;;;5114157;27;20027;-84
2023/07/18 06:21:26;;;;;;;4.45;3.55;;;;;;;;;;5135666;27;20034;-85
2023/07/18 06:23:51;;;;;;;8.50;4.00;;;;;;;;;;5135758;27;20489;-86
2023/07/18 06:26:17;;;;;;;4.72;2.78;;;;;;;;;;5136289;27;20038;-88
2023/07/18 06:28:42;;;;;;;3.88;2.75;;;;;;;;;;5118726;27;20054;-87
2023/07/18 06:31:07;;;;;;;5.05;3.60;;;;;;;;;;5136908;27;20031;-88
2023/07/18 06:33:33;;;;;;;4.18;3.47;;;;;;;;;;5134142;27;20031;-87
2023/07/18 06:35:58;;;;;;;4.68;3.45;;;;;;;;;;5135056;27;20015;-89
2023/07/18 06:38:24;;;;;;;3.45;2.70;;;;;;;;;;5135678;27;20054;-85
2023/07/18 06:40:50;;;;;;;3.28;2.83;;;;;;;;;;5135904;27;20402;-85
2023/07/18 06:43:16;;;;;;;4.43;3.55;;;;;;;;;;5113708;28;20055;-86
2023/07/18 06:45:48;;;;;;;4.72;3.28;;;;;;;;;;5114245;28;20522;-92
2023/07/18 06:48:14;;;;;;;5.47;3.55;;;;;;;;;;5107433;28;20020;-86
2023/07/18 06:50:47;;;;;;;4.80;3.65;;;;;;;;;;5111771;28;20024;-84
2023/07/18 06:53:18;;;;;;;3.95;3.42;;;;;;;;;;5113328;28;20034;-87
2023/07/18 06:55:43;;;;;;;6.10;4.03;;;;;;;;;;5114250;28;20050;-86
2023/07/18 06:58:09;;;;;;;5.07;3.97;;;;;;;;;;5112526;28;20467;-87
2023/07/18 07:00:36;;;;;;;5.45;4.03;;;;;;;;;;5113322;28;20031;-86
2023/07/18 07:03:01;;;;;;;4.93;3.83;;;;;;;;;;5112562;28;20028;-88
2023/07/18 07:05:27;;;;;;;4.43;3.50;;;;;;;;;;5111683;28;20084;-92
2023/07/18 07:07:53;;;;;;;4.38;3.35;;;;;;;;;;5114750;28;20054;-87
2023/07/18 07:10:19;;;;;;;8.40;5.05;;;;;;;;;;5108283;28;20491;-86
2023/07/18 07:12:44;;;;;;;10.23;2.95;;;;;;;;;;5109511;28;20023;-85
2023/07/18 07:15:11;;;;;;;4.90;3.80;;;;;;;;;;5114210;28;20023;-84
2023/07/18 07:17:37;;;;;;;5.57;4.05;;;;;;;;;;5108539;28;20475;-86
2023/07/18 07:20:05;;;;;;;6.88;4.22;;;;;;;;;;5112740;28;20038;-86
2023/07/18 07:22:30;;;;;;;4.82;3.42;;;;;;;;;;5113374;28;20165;-87
2023/07/18 07:24:56;;;;;;;4.55;3.10;;;;;;;;;;5114066;28;20468;-88
2023/07/18 07:27:22;;;;;;;5.20;4.22;;;;;;;;;;5113142;28;20345;-86
2023/07/18 07:29:49;;;;;;;3.95;3.03;;;;;;;;;;5111081;28;20085;-83
2023/07/18 07:32:15;;;;;;;4.53;3.55;;;;;;;;;;5113530;28;20027;-87
2023/07/18 07:34:41;;;;;;;6.03;4.18;;;;;;;;;;5112789;28;20345;-85
2023/07/18 07:37:08;;;;;;;4.30;3.15;;;;;;;;;;5102957;28;20024;-85
2023/07/18 07:39:34;;;;;;;3.28;2.67;;;;;;;;;;5109670;28;20530;-84
2023/07/18 07:42:00;;;;;;;5.15;3.88;;;;;;;;;;5107858;28;20131;-84
2023/07/18 07:44:26;;;;;;;4.60;3.40;;;;;;;;;;5089156;28;20035;-84
2023/07/18 07:46:52;;;;;;;3.63;3.15;;;;;;;;;;5099168;28;20091;-84
2023/07/18 07:49:17;;;;;;;4.97;3.75;;;;;;;;;;5080241;28;20513;-87
2023/07/18 07:51:42;;;;;;;5.60;3.75;;;;;;;;;;5109674;28;20076;-88
2023/07/18 07:54:08;;;;;;;5.05;3.53;;;;;;;;;;5112422;28;20035;-82
2023/07/18 07:56:33;;;;;;;3.88;2.97;;;;;;;;;;5111218;28;20023;-86
2023/07/18 07:58:59;;;;;;;5.30;3.45;;;;;;;;;;5102501;28;20379;-84
2023/07/18 08:01:24;;;;;;;5.65;4.00;;;;;;;;;;5113013;28;20023;-85
2023/07/18 08:03:50;;;;;;;4.07;3.00;;;;;;;;;;5109362;28;20106;-87
2023/07/18 08:06:15;;;;;;;3.50;3.03;;;;;;;;;;5104300;28;20367;-85
2023/07/18 08:08:40;;;;;;;4.72;3.28;;;;;;;;;;5105115;28;20463;-85
2023/07/18 08:11:06;;;;;;;5.45;3.42;;;;;;;;;;5112642;28;20030;-87
2023/07/18 08:13:31;;;;;;;4.85;3.35;;;;;;;;;;5111313;28;20030;-87
2023/07/18 08:15:57;;;;;;;7.13;4.20;;;;;;;;;;5111267;28;20127;-89
2023/07/18 08:18:22;;;;;;;4.95;4.10;;;;;;;;;;5112885;28;20023;-86
2023/07/18 08:20:47;;;;;;;3.92;3.13;;;;;;;;;;5112626;28;20117;-86
2023/07/18 08:23:14;;;;;;;4.43;3.53;;;;;;;;;;5110109;28;20016;-86
2023/07/18 08:25:43;;;;;;;5.55;3.63;;;;;;;;;;5110572;28;20475;-87
2023/07/18 08:28:08;;;;;;;4.90;3.67;;;;;;;;;;5112787;28;20047;-88
2023/07/18 08:30:33;;;;;;;4.18;3.30;;;;;;;;;;5110739;28;20078;-88
2023/07/18 08:32:59;;;;;;;4.95;4.07;;;;;;;;;;5108005;28;20034;-87
2023/07/18 08:35:25;;;;;;;5.40;3.92;;;;;;;;;;5115159;27;20023;-87
2023/07/18 08:37:50;;;;;;;4.85;3.80;;;;;;;;;;5112297;28;20024;-87
2023/07/18 08:40:16;;;;;;;3.28;2.80;;;;;;;;;;5111411;28;20122;-85
2023/07/18 08:42:45;;;;;;;;;;;;;;;;;;5125361;27;20058;-89
2023/07/18 08:45:14;;;;;;;6.53;4.15;;;;;;;;;;5132769;27;19911;-85
2023/07/18 08:47:41;;;;;;;5.80;4.40;;;;;;;;;;5114778;27;20030;-85
2023/07/18 08:50:10;;;;;;;6.68;4.75;;;;;;;;;;5129262;27;20438;-86
2023/07/18 08:52:36;;;;;;;5.15;4.43;;;;;;;;;;5126874;27;21326;-87
2023/07/18 08:55:03;;;;;;;4.93;4.18;;;;;;;;;;5133664;27;20550;-86
2023/07/18 08:57:30;;;;;;;4.60;3.70;;;;;;;;;;5130925;27;20046;-87
2023/07/18 08:59:59;;;;;;;5.57;3.85;;;;;;;;;;5132594;27;20027;-86
2023/07/18 09:02:24;;;;;;;6.07;4.40;;;;;;;;;;5132266;27;20015;-87
2023/07/18 09:04:50;;;;;;;3.40;2.40;;;;;;;;;;5131949;27;20075;-84
2023/07/18 09:07:17;;;;;;;4.45;3.70;;;;;;;;;;5113678;27;20107;-84
2023/07/18 09:09:46;;;;;;;2.90;2.38;;;;;;;;;;5130383;27;20034;-87
2023/07/18 09:12:13;;;;;;;;;;;;;;;;;;5132026;27;20110;-88
2023/07/18 09:14:38;;;;;;;4.85;3.85;;;;;;;;;;5112382;27;19911;-85
2023/07/18 09:17:05;;;;;;;5.05;4.05;;;;;;;;;;5112106;28;20108;-85
2023/07/18 09:19:45;;;;;;;5.60;4.18;;;;;;;;;;5132838;27;20034;-89
2023/07/18 09:22:16;;;;;;;5.72;4.35;;;;;;;;;;5128374;27;20024;-87
2023/07/18 09:24:43;;;;;;;6.15;4.70;;;;;;;;;;5132131;27;20023;-85
2023/07/18 09:27:16;;;;;;;6.40;3.88;;;;;;;;;;5114270;28;20428;-85
2023/07/18 09:29:45;;;;;;;5.80;4.43;;;;;;;;;;5130289;27;20030;-88
2023/07/18 09:32:17;;;;;;;5.10;3.65;;;;;;;;;;5130726;27;20424;-86
2023/07/18 09:34:58;;;;;;;4.35;3.40;;;;;;;;;;5127780;28;20035;-89
2023/07/18 09:37:24;;;;;;;4.60;3.78;;;;;;;;;;5132058;28;20531;-85
2023/07/18 09:39:50;;;;;;;5.05;3.95;;;;;;;;;;5131245;28;20061;-84
2023/07/18 09:42:19;;;;;;;4.90;3.50;;;;;;;;;;5132575;28;20051;-86
2023/07/18 09:44:51;;;;;;;6.05;3.38;;;;;;;;;;5112647;27;20215;-88
2023/07/18 09:47:17;;;;;;;3.25;2.58;;;;;;;;;;5134302;27;20058;-83
2023/07/18 09:49:43;;;;;;;7.85;4.80;;;;;;;;;;5135584;27;20413;-86
2023/07/18 09:52:09;;;;;;;4.97;3.03;;;;;;;;;;5118265;27;20023;-87
2023/07/18 09:54:35;;;;;;;5.60;3.92;;;;;;;;;;5133483;27;20031;-86
2023/07/18 09:57:09;;;;;;;4.78;2.67;;;;;;;;;;5119670;27;20109;-84
2023/07/18 09:59:39;;;;;;;4.88;3.97;;;;;;;;;;5114980;27;20023;-82
2023/07/18 10:02:10;;;;;;;5.53;4.22;;;;;;;;;;5137537;27;20035;-85
2023/07/18 10:04:37;;;;;;;7.00;4.78;;;;;;;;;;5115704;27;20045;-86
2023/07/18 10:07:03;;;;;;;5.03;4.38;;;;;;;;;;5118190;27;20083;-89
2023/07/18 10:09:32;;;;;;;5.60;4.28;;;;;;;;;;5115526;27;20026;-84
2023/07/18 10:12:03;;;;;;;5.10;3.97;;;;;;;;;;5131141;27;20038;-85
2023/07/18 10:14:29;;;;;;;5.50;4.10;;;;;;;;;;5139753;27;20110;-84
2023/07/18 10:16:59;;;;;;;4.72;3.80;;;;;;;;;;5135593;27;20047;-83
2023/07/18 10:19:28;;;;;;;5.00;3.90;;;;;;;;;;5135469;27;20050;-86
2023/07/18 10:21:57;;;;;;;4.15;3.20;;;;;;;;;;5136660;27;20023;-84
2023/07/18 10:24:28;;;;;;;4.53;3.75;;;;;;;;;;5119884;27;20027;-87
2023/07/18 10:27:07;;;;;;;4.72;3.60;;;;;;;;;;5137172;27;20031;-86
2023/07/18 10:29:41;;;;;;;4.80;3.50;;;;;;;;;;5136778;27;20027;-88
2023/07/18 10:32:12;;;;;;;5.63;4.07;;;;;;;;;;5136945;27;20027;-85
2023/07/18 10:34:52;;;;;;;4.53;4.03;;;;;;;;;;5118693;27;20498;-84
2023/07/18 10:37:25;;;;;;;3.78;2.75;;;;;;;;;;5116533;27;20043;-84
2023/07/18 10:39:51;;;;;;;4.85;3.42;;;;;;;;;;5118959;27;20061;-85
2023/07/18 10:42:30;;;;;;;4.30;3.22;;;;;;;;;;5114161;27;20075;-86
2023/07/18 10:45:03;;;;;;;4.28;2.83;;;;;;;;;;5135398;27;20023;-85
2023/07/18 10:47:30;;;;;;;2.70;2.30;;;;;;;;;;5130211;27;20035;-87
2023/07/18 10:49:56;;;;;;;3.55;2.55;;;;;;;;;;5134785;27;20812;-87
2023/07/18 10:52:22;;;;;;;2.35;1.63;;;;;;;;;;5117805;27;20027;-87
2023/07/18 10:54:55;;;;;;;4.22;2.45;;;;;;;;;;5135669;27;20184;-88
2023/07/18 10:57:27;;;;;;;2.50;1.83;;;;;;;;;;5135508;27;20364;-89
2023/07/18 10:59:54;;;;;;;2.35;1.98;;;;;;;;;;5133677;27;20478;-80
2023/07/18 11:02:22;;;;;;;2.50;1.83;;;;;;;;;;5137874;27;20030;-86
2023/07/18 11:04:51;;;;;;;2.33;1.60;;;;;;;;;;5136817;27;20042;-86
2023/07/18 11:07:17;;;;;;;1.95;1.67;;;;;;;;;;5137786;27;20042;-86
2023/07/18 11:09:42;;;;;;;1.83;1.35;;;;;;;;;;5118848;27;20378;-86
2023/07/18 11:12:18;;;;;;;3.83;2.08;;;;;;;;;;5115743;27;20039;-86
2023/07/18 11:14:44;;;;;;;2.13;1.40;;;;;;;;;;5118007;27;20031;-85
2023/07/18 11:17:17;;;;;;;2.80;1.90;;;;;;;;;;5137791;27;20027;-89
2023/07/18 11:19:43;;;;;;;6.90;1.92;;;;;;;;;;5135339;27;20098;-88
2023/07/18 11:22:16;;;;;;;2.33;1.48;;;;;;;;;;5136667;27;20509;-86
2023/07/18 11:24:47;;;;;;;2.08;1.45;;;;;;;;;;5130476;27;20023;-83
2023/07/18 11:27:22;;;;;;;1.67;1.20;;;;;;;;;;5115024;27;20089;-85
2023/07/18 11:30:00;;;;;;;1.10;0.90;;;;;;;;;;5135822;27;20027;-83
2023/07/18 11:32:52;;;;;;;2.55;1.73;;;;;;;;;;5132334;27;20097;-86
2023/07/18 11:35:22;;;;;;;1.42;1.23;;;;;;;;;;5127053;27;20095;-86
2023/07/18 11:37:52;;;;;;;1.60;1.20;;;;;;;;;;5132301;27;20027;-89
2023/07/18 11:40:21;;;;;;;1.92;1.27;;;;;;;;;;5134211;27;20027;-84
2023/07/18 11:42:52;;;;;;;2.22;1.50;;;;;;;;;;5108021;28;20043;-86
2023/07/18 11:45:25;;;;;;;1.77;1.17;;;;;;;;;;5109316;28;20422;-85
2023/07/18 11:47:59;;;;;;;2.25;1.25;;;;;;;;;;5116463;28;20026;-88
2023/07/18 11:50:29;;;;;;;2.63;1.63;;;;;;;;;;5112281;28;20096;-87
2023/07/18 11:52:57;;;;;;;1.35;1.10;;;;;;;;;;5113275;28;20058;-87
2023/07/18 11:55:23;;;;;;;1.17;1.05;;;;;;;;;;5114214;28;20035;-87
2023/07/18 11:57:55;;;;;;;2.15;1.30;;;;;;;;;;5114597;28;20020;-89
2023/07/18 12:00:21;;;;;;;2.25;1.17;;;;;;;;;;5110032;28;20027;-86
2023/07/18 12:02:48;;;;;;;0.88;0.70;;;;;;;;;;5106029;28;20552;-87
2023/07/18 12:05:14;;;;;;;1.90;1.10;;;;;;;;;;5108676;27;20499;-86
2023/07/18 12:07:40;;;;;;;1.15;0.82;;;;;;;;;;5112520;28;20050;-87
2023/07/18 12:10:06;;;;;;;1.25;1.00;;;;;;;;;;5111225;28;20020;-87
2023/07/18 12:12:35;;;;;;;4.32;1.50;;;;;;;;;;5113334;28;20026;-88
2023/07/18 12:15:01;;;;;;;2.13;1.33;;;;;;;;;;5111795;28;20023;-88
2023/07/18 12:17:27;;;;;;;1.50;1.27;;;;;;;;;;5110566;27;20038;-86
2023/07/18 12:19:52;;;;;;;2.00;1.30;;;;;;;;;;5094397;28;20185;-88
2023/07/18 12:22:18;;;;;;;1.55;1.20;;;;;;;;;;5091161;27;20028;-87
2023/07/18 12:24:43;;;;;;;1.00;0.90;;;;;;;;;;5089971;28;20035;-86
2023/07/18 12:27:09;;;;;;;1.77;1.33;;;;;;;;;;5108445;28;20042;-88
2023/07/18 12:29:36;;;;;;;1.92;1.10;;;;;;;;;;5092827;28;20114;-88
2023/07/18 12:32:02;;;;;;;2.03;1.25;;;;;;;;;;5093389;28;20031;-85
2023/07/18 12:34:28;;;;;;;1.95;1.55;;;;;;;;;;5109512;28;20115;-86
2023/07/18 12:36:53;;;;;;;1.15;1.05;;;;;;;;;;5108198;28;20115;-86
2023/07/18 12:39:19;;;;;;;2.30;1.48;;;;;;;;;;5108042;28;20034;-85
2023/07/18 12:41:45;;;;;;;1.65;1.20;;;;;;;;;;5111676;28;20043;-88
2023/07/18 12:44:20;;;;;;;1.55;1.08;;;;;;;;;;5109487;28;20031;-90
2023/07/18 12:46:47;;;;;;;1.75;1.30;;;;;;;;;;5091483;28;20019;-88
2023/07/18 12:49:15;;;;;;;1.73;1.15;;;;;;;;;;5087631;28;20085;-86
2023/07/18 12:51:41;;;;;;;1.23;1.13;;;;;;;;;;5115159;27;20012;-88
2023/07/18 12:54:10;;;;;;;1.23;0.80;;;;;;;;;;5112391;28;20153;-85
2023/07/18 12:56:37;;;;;;;2.13;1.20;;;;;;;;;;5093398;28;20023;-87
2023/07/18 12:59:05;;;;;;;3.45;1.30;;;;;;;;;;5110093;28;20027;-86
2023/07/18 13:01:32;;;;;;;1.35;0.90;;;;;;;;;;5093473;28;20027;-86
2023/07/18 13:03:57;;;;;;;1.10;0.70;;;;;;;;;;5109013;28;20043;-87
2023/07/18 13:06:22;;;;;;;3.00;1.80;;;;;;;;;;5108068;28;20067;-88
2023/07/18 13:08:48;;;;;;;2.50;1.92;;;;;;;;;;5092479;28;20053;-90
2023/07/18 13:11:13;;;;;;;1.35;1.20;;;;;;;;;;5093354;28;20020;-84
2023/07/18 13:13:39;;;;;;;2.45;1.30;;;;;;;;;;5110987;28;20072;-88
2023/07/18 13:16:05;;;;;;;3.00;1.73;;;;;;;;;;5096500;28;20019;-90
2023/07/18 13:18:32;;;;;;;2.20;1.42;;;;;;;;;;5112475;28;20494;-90
2023/07/18 13:20:58;;;;;;;2.33;1.55;;;;;;;;;;5092609;28;20051;-88
2023/07/18 13:23:23;;;;;;;1.77;1.23;;;;;;;;;;5093641;28;20480;-87
2023/07/18 13:25:49;;;;;;;2.35;1.10;;;;;;;;;;5082359;28;20468;-90
2023/07/18 13:28:15;;;;;;;1.20;1.00;;;;;;;;;;5093674;28;20027;-86
2023/07/18 13:30:41;;;;;;;3.85;1.52;;;;;;;;;;5112656;28;20031;-86
2023/07/18 13:33:06;;;;;;;1.65;1.55;;;;;;;;;;5111446;28;20040;-89
2023/07/18 13:35:32;;;;;;;1.30;1.13;;;;;;;;;;5105386;28;20383;-91
2023/07/18 13:37:57;;;;;;;5.25;1.80;;;;;;;;;;5093996;28;20399;-89
2023/07/18 13:40:23;;;;;;;1.67;1.20;;;;;;;;;;5112166;28;20038;-87
2023/07/18 13:42:48;;;;;;;1.98;1.42;;;;;;;;;;5108255;28;20052;-85
2023/07/18 13:45:14;;;;;;;2.03;1.35;;;;;;;;;;5093629;28;20028;-86
2023/07/18 13:47:39;;;;;;;1.10;0.90;;;;;;;;;;5110256;28;20015;-86
2023/07/18 13:50:05;;;;;;;1.15;1.05;;;;;;;;;;5111572;28;20098;-86
2023/07/18 13:52:31;;;;;;;2.05;1.40;;;;;;;;;;5107371;28;20024;-86
2023/07/18 13:54:56;;;;;;;2.95;1.45;;;;;;;;;;5108634;28;20076;-89
2023/07/18 13:57:21;;;;;;;1.65;1.40;;;;;;;;;;5105558;28;20028;-85
2023/07/18 13:59:47;;;;;;;2.97;1.10;;;;;;;;;;5108293;28;20019;-91
2023/07/18 14:02:14;;;;;;;3.05;1.77;;;;;;;;;;5088743;28;20360;-89
2023/07/18 14:04:39;;;;;;;1.35;1.25;;;;;;;;;;5111690;28;20038;-84
2023/07/18 14:07:05;;;;;;;1.98;1.40;;;;;;;;;;5092350;28;20020;-87
2023/07/18 14:09:31;;;;;;;2.38;1.40;;;;;;;;;;5100269;28;20062;-86
2023/07/18 14:11:57;;;;;;;2.25;1.33;;;;;;;;;;5093033;28;20058;-89
2023/07/18 14:14:22;;;;;;;1.85;1.30;;;;;;;;;;5108952;28;20047;-84
2023/07/18 14:16:47;;;;;;;2.95;1.80;;;;;;;;;;5105832;28;20543;-89
2023/07/18 14:19:13;;;;;;;1.75;1.20;;;;;;;;;;5105192;28;20032;-89
2023/07/18 14:21:39;;;;;;;1.52;1.05;;;;;;;;;;5108306;28;20031;-85
2023/07/18 14:24:05;;;;;;;3.50;1.48;;;;;;;;;;5087214;28;20043;-87
2023/07/18 14:26:30;;;;;;;7.18;1.40;;;;;;;;;;5111387;28;20046;-87
2023/07/18 14:28:56;;;;;;;1.80;1.48;;;;;;;;;;5105622;28;20019;-87
2023/07/18 14:31:21;;;;;;;1.98;1.33;;;;;;;;;;5111023;28;20033;-88
2023/07/18 14:33:47;;;;;;;1.15;1.02;;;;;;;;;;5114410;28;20062;-87
2023/07/18 14:36:12;;;;;;;3.80;1.30;;;;;;;;;;5112761;28;20030;-87
2023/07/18 14:38:38;;;;;;;2.13;1.35;;;;;;;;;;5114112;28;20030;-88
2023/07/18 14:41:03;;;;;;;1.52;1.13;;;;;;;;;;5111130;28;20035;-87
2023/07/18 14:43:31;;;;;;;1.58;1.10;;;;;;;;;;5110047;28;20046;-89
2023/07/18 14:45:56;;;;;;;1.55;1.13;;;;;;;;;;5092670;28;20107;-84